createdAt,value
2019-05-06T00:00:06.516Z,101422.64
2019-05-06T00:02:35.648Z,101422.64
2019-05-06T00:05:06.111Z,101420.38
2019-05-06T00:07:35.242Z,101428.41
2019-05-06T00:10:05.803Z,101417.38
2019-05-06T00:12:35.046Z,101433.67
2019-05-06T00:15:06.749Z,101433.67
2019-05-06T00:17:35.839Z,101428.94
2019-05-06T00:20:06.914Z,101421.98
2019-05-06T00:22:36.037Z,101426.42
2019-05-06T00:25:08.762Z,101423.13
2019-05-06T00:27:55.439Z,101422.64
2019-05-06T00:30:24.549Z,101420.50
2019-05-06T00:32:53.879Z,101420.50
2019-05-06T00:35:23.483Z,101429.97
2019-05-06T00:37:53.667Z,101429.97
2019-05-06T00:40:24.708Z,101423.59
2019-05-06T00:42:57.898Z,101420.02
2019-05-06T00:45:26.945Z,101425.27
2019-05-06T00:47:55.968Z,101425.27
2019-05-06T00:50:25.084Z,101425.94
2019-05-06T00:52:55.192Z,101419.84
2019-05-06T00:55:24.300Z,101420.20
2019-05-06T00:57:54.461Z,101418.33
2019-05-06T01:00:26.217Z,101419.72
2019-05-06T01:02:55.267Z,101419.72
2019-05-06T01:05:24.607Z,101417.66
2019-05-06T01:07:54.951Z,101416.91
2019-05-06T01:10:24.806Z,101419.55
2019-05-06T01:13:01.552Z,101413.14
2019-05-06T01:15:31.210Z,101416.43
2019-05-06T01:18:00.279Z,101416.43
2019-05-06T01:20:29.371Z,101427.33
2019-05-06T01:22:58.428Z,101429.48
2019-05-06T01:25:27.493Z,101425.92
2019-05-06T01:27:56.511Z,101425.34
2019-05-06T01:30:26.020Z,101431.83
2019-05-06T01:32:55.049Z,101426.47
2019-05-06T01:35:24.631Z,101425.75
2019-05-06T01:38:11.644Z,101425.75
2019-05-06T01:40:48.556Z,101436.34
2019-05-06T01:43:19.247Z,101432.73
2019-05-06T01:45:48.284Z,101432.29
2019-05-06T01:48:18.974Z,101435.34
2019-05-06T01:50:47.998Z,101442.11
2019-05-06T01:53:17.031Z,101441.94
2019-05-06T01:55:46.099Z,101438.95
2019-05-06T01:58:15.155Z,101433.84
2019-05-06T02:00:44.171Z,101436.09
2019-05-06T02:03:14.813Z,101437.30
2019-05-06T02:05:44.551Z,101438.86
2019-05-06T02:08:13.904Z,101436.61
2019-05-06T02:10:43.553Z,101441.25
2019-05-06T02:13:14.235Z,101442.44
2019-05-06T02:15:44.883Z,101446.94
2019-05-06T02:18:14.869Z,101445.02
2019-05-06T02:20:44.636Z,101448.16
2019-05-06T02:23:18.048Z,101447.69
2019-05-06T02:25:48.735Z,101444.50
2019-05-06T02:28:17.790Z,101453.58
2019-05-06T02:31:05.393Z,101447.41
2019-05-06T02:33:35.863Z,101445.42
2019-05-06T02:36:09.260Z,101446.91
2019-05-06T02:38:46.676Z,101455.81
2019-05-06T02:41:09.032Z,101442.31
2019-05-06T02:43:38.455Z,101443.80
2019-05-06T02:46:07.485Z,101441.70
2019-05-06T02:48:38.256Z,101448.92
2019-05-06T02:51:08.927Z,101444.98
2019-05-06T02:53:38.006Z,101447.66
2019-05-06T02:56:07.030Z,101452.80
2019-05-06T02:58:36.056Z,101449.64
2019-05-06T03:01:05.148Z,101445.59
2019-05-06T03:03:34.466Z,101452.91
2019-05-06T03:06:04.303Z,101445.40
2019-05-06T03:08:34.017Z,101442.64
2019-05-06T03:11:04.202Z,101450.83
2019-05-06T03:13:34.315Z,101446.73
2019-05-06T03:16:05.891Z,101451.92
2019-05-06T03:18:34.853Z,101442.70
2019-05-06T03:21:13.806Z,101451.86
2019-05-06T03:23:43.948Z,101448.52
2019-05-06T03:26:13.773Z,101444.43
2019-05-06T03:28:44.052Z,101446.91
2019-05-06T03:31:16.591Z,101445.97
2019-05-06T03:33:59.568Z,101434.70
2019-05-06T03:36:24.142Z,101440.11
2019-05-06T03:38:45.968Z,101443.16
2019-05-06T03:41:15.020Z,101439.12
2019-05-06T03:43:44.123Z,101447.54
2019-05-06T03:46:23.236Z,101440.41
2019-05-06T03:48:55.866Z,101443.61
2019-05-06T03:51:24.878Z,101446.42
2019-05-06T03:53:56.742Z,101449.91
2019-05-06T03:56:26.544Z,101451.45
2019-05-06T03:58:58.166Z,101449.38
2019-05-06T04:01:27.589Z,101445.10
2019-05-06T04:03:57.534Z,101442.17
2019-05-06T04:06:27.527Z,101443.10
2019-05-06T04:08:56.946Z,101444.16
2019-05-06T04:11:27.440Z,101448.59
2019-05-06T04:13:57.398Z,101447.95
2019-05-06T04:16:34.585Z,101443.48
2019-05-06T04:19:12.993Z,101443.56
2019-05-06T04:21:53.472Z,101454.56
2019-05-06T04:24:33.908Z,101452.84
2019-05-06T04:27:46.357Z,101459.19
2019-05-06T04:30:18.249Z,101448.44
2019-05-06T04:32:47.891Z,101456.55
2019-05-06T04:35:16.996Z,101456.97
2019-05-06T04:37:46.028Z,101457.20
2019-05-06T04:40:15.409Z,101458.06
2019-05-06T04:42:44.733Z,101461.77
2019-05-06T04:45:17.453Z,101462.43
2019-05-06T04:47:46.270Z,101461.19
2019-05-06T04:50:16.045Z,101459.36
2019-05-06T04:52:47.947Z,101463.23
2019-05-06T04:55:17.326Z,101468.98
2019-05-06T04:57:46.384Z,101465.14
2019-05-06T05:00:15.960Z,101471.11
2019-05-06T05:02:46.517Z,101469.83
2019-05-06T05:05:16.114Z,101468.41
2019-05-06T05:07:45.333Z,101466.23
2019-05-06T05:10:16.142Z,101467.84
2019-05-06T05:12:59.286Z,101462.84
2019-05-06T05:15:46.174Z,101462.84
2019-05-06T05:18:16.945Z,101473.52
2019-05-06T05:20:46.910Z,101482.55
2019-05-06T05:23:16.241Z,101485.16
2019-05-06T05:25:45.654Z,101485.16
2019-05-06T05:28:15.002Z,101486.66
2019-05-06T05:30:44.605Z,101495.84
2019-05-06T05:33:14.178Z,101490.36
2019-05-06T05:35:43.558Z,101451.17
2019-05-06T05:38:13.210Z,101498.06
2019-05-06T05:40:43.570Z,101493.38
2019-05-06T05:43:22.941Z,101500.41
2019-05-06T05:45:52.441Z,101500.89
2019-05-06T05:48:35.830Z,101499.02
2019-05-06T05:51:05.267Z,101497.53
2019-05-06T05:53:34.958Z,101494.23
2019-05-06T05:56:04.647Z,101494.23
2019-05-06T05:58:34.347Z,101499.52
2019-05-06T06:01:04.194Z,101493.67
2019-05-06T06:03:33.561Z,101494.68
2019-05-06T06:06:03.219Z,101489.88
2019-05-06T06:08:32.441Z,101489.88
2019-05-06T06:11:08.950Z,101495.55
2019-05-06T06:13:38.132Z,101492.92
2019-05-06T06:16:08.941Z,101487.72
2019-05-06T06:18:48.156Z,101492.64
2019-05-06T06:21:37.433Z,101490.83
2019-05-06T06:24:08.667Z,101495.72
2019-05-06T06:26:37.952Z,101491.95
2019-05-06T06:29:07.078Z,101491.95
2019-05-06T06:31:37.789Z,101495.70
2019-05-06T06:34:12.974Z,101490.75
2019-05-06T06:36:55.864Z,101490.75
2019-05-06T06:39:29.666Z,101497.52
2019-05-06T06:41:58.917Z,101496.34
2019-05-06T06:44:33.105Z,101496.34
2019-05-06T06:47:02.484Z,101493.98
2019-05-06T06:49:32.913Z,101493.54
2019-05-06T06:52:02.909Z,101484.85
2019-05-06T06:54:32.498Z,101479.73
2019-05-06T06:57:08.952Z,101475.94
2019-05-06T06:59:49.821Z,101471.41
2019-05-06T07:02:23.011Z,101459.05
2019-05-06T07:05:03.116Z,101459.47
2019-05-06T07:07:41.415Z,101471.94
2019-05-06T07:10:08.432Z,101476.16
2019-05-06T07:12:38.009Z,101473.72
2019-05-06T07:15:07.804Z,101473.59
2019-05-06T07:17:36.867Z,101477.06
2019-05-06T07:20:23.785Z,101475.28
2019-05-06T07:22:53.047Z,101480.95
2019-05-06T07:25:22.823Z,101474.28
2019-05-06T07:27:52.945Z,101473.35
2019-05-06T07:30:24.065Z,101480.27
2019-05-06T07:32:53.083Z,101481.41
2019-05-06T07:35:23.846Z,101480.28
2019-05-06T07:37:53.094Z,101472.59
2019-05-06T07:40:22.719Z,101473.09
2019-05-06T07:42:53.516Z,101467.67
2019-05-06T07:45:42.431Z,101473.27
2019-05-06T07:48:12.817Z,101467.99
2019-05-06T07:50:42.559Z,101468.95
2019-05-06T07:53:13.329Z,101471.52
2019-05-06T07:55:42.629Z,101472.56
2019-05-06T07:58:13.559Z,101473.11
2019-05-06T08:00:42.734Z,101473.91
2019-05-06T08:03:14.077Z,101472.93
2019-05-06T08:05:55.143Z,101476.11
2019-05-06T08:08:13.660Z,101476.70
2019-05-06T08:10:42.840Z,101471.26
2019-05-06T08:13:13.036Z,101469.83
2019-05-06T08:15:42.582Z,101480.48
2019-05-06T08:18:13.146Z,101473.12
2019-05-06T08:20:42.767Z,101476.66
2019-05-06T08:23:14.091Z,101476.84
2019-05-06T08:25:47.457Z,101470.45
2019-05-06T08:28:16.936Z,101476.67
2019-05-06T08:30:45.949Z,101475.27
2019-05-06T08:33:15.013Z,101475.70
2019-05-06T08:35:44.104Z,101473.21
2019-05-06T08:38:13.149Z,101475.83
2019-05-06T08:40:43.034Z,101473.52
2019-05-06T08:43:13.088Z,101470.98
2019-05-06T08:45:42.532Z,101475.57
2019-05-06T08:48:12.996Z,101475.57
2019-05-06T08:50:44.006Z,101468.52
2019-05-06T08:53:14.699Z,101470.59
2019-05-06T08:55:45.591Z,101462.11
2019-05-06T08:58:14.634Z,101456.34
2019-05-06T09:00:45.463Z,101467.30
2019-05-06T09:03:14.495Z,101471.55
2019-05-06T09:05:45.171Z,101457.74
2019-05-06T09:08:14.337Z,101458.84
2019-05-06T09:10:43.382Z,101463.45
2019-05-06T09:13:12.417Z,101466.92
2019-05-06T09:15:42.896Z,101472.33
2019-05-06T09:18:12.473Z,101472.11
2019-05-06T09:20:43.199Z,101475.97
2019-05-06T09:23:12.553Z,101479.66
2019-05-06T09:25:42.490Z,101476.17
2019-05-06T09:28:25.255Z,101474.44
2019-05-06T09:30:55.943Z,101469.33
2019-05-06T09:33:29.302Z,101471.91
2019-05-06T09:35:58.344Z,101473.12
2019-05-06T09:38:27.367Z,101467.70
2019-05-06T09:40:56.412Z,101472.95
2019-05-06T09:43:25.463Z,101473.71
2019-05-06T09:45:54.514Z,101468.42
2019-05-06T09:48:33.029Z,101460.98
2019-05-06T09:51:02.878Z,101461.38
2019-05-06T09:53:34.131Z,101455.16
2019-05-06T09:56:13.604Z,101453.42
2019-05-06T09:58:44.554Z,101460.33
2019-05-06T10:01:14.636Z,101460.56
2019-05-06T10:03:43.691Z,101461.92
2019-05-06T10:06:13.186Z,101454.45
2019-05-06T10:08:42.539Z,101455.97
2019-05-06T10:11:11.581Z,101452.81
2019-05-06T10:13:42.951Z,101454.66
2019-05-06T10:16:12.987Z,101454.38
2019-05-06T10:18:42.361Z,101452.00
2019-05-06T10:21:12.485Z,101451.73
2019-05-06T10:23:42.282Z,101452.48
2019-05-06T10:26:13.019Z,101448.41
2019-05-06T10:28:43.851Z,101447.02
2019-05-06T10:31:14.607Z,101443.81
2019-05-06T10:34:03.015Z,101446.91
2019-05-06T10:36:37.224Z,101444.44
2019-05-06T10:39:09.299Z,101440.89
2019-05-06T10:41:42.268Z,101446.89
2019-05-06T10:44:23.404Z,101447.95
2019-05-06T10:46:52.908Z,101441.11
2019-05-06T10:49:22.620Z,101435.81
2019-05-06T10:51:53.616Z,101434.73
2019-05-06T10:54:22.968Z,101425.62
2019-05-06T10:56:57.557Z,101420.77
2019-05-06T10:59:26.777Z,101425.60
2019-05-06T11:02:05.378Z,101417.68
2019-05-06T11:04:33.963Z,101408.31
2019-05-06T11:07:03.990Z,101413.43
2019-05-06T11:09:33.427Z,101404.41
2019-05-06T11:12:03.312Z,101404.93
2019-05-06T11:14:33.061Z,101401.37
2019-05-06T11:17:04.834Z,101395.31
2019-05-06T11:19:33.225Z,101405.88
2019-05-06T11:22:03.660Z,101401.88
2019-05-06T11:24:33.172Z,101392.67
2019-05-06T11:27:03.374Z,101390.66
2019-05-06T11:29:36.758Z,101391.36
2019-05-06T11:32:15.838Z,101395.69
2019-05-06T11:34:52.619Z,101401.14
2019-05-06T11:37:23.506Z,101401.41
2019-05-06T11:39:53.009Z,101403.22
2019-05-06T11:42:28.896Z,101408.43
2019-05-06T11:44:53.360Z,101404.45
2019-05-06T11:47:23.466Z,101406.86
2019-05-06T11:49:56.289Z,101402.03
2019-05-06T11:52:26.701Z,101400.41
2019-05-06T11:54:55.763Z,101398.67
2019-05-06T11:57:24.775Z,101394.45
2019-05-06T11:59:53.829Z,101397.41
2019-05-06T12:02:24.497Z,101397.50
2019-05-06T12:04:53.536Z,101399.70
2019-05-06T12:07:24.530Z,101402.20
2019-05-06T12:09:54.251Z,101401.95
2019-05-06T12:12:23.837Z,101401.95
2019-05-06T12:14:53.062Z,101405.03
2019-05-06T12:17:22.428Z,101401.07
2019-05-06T12:19:52.847Z,101398.80
2019-05-06T12:22:23.910Z,101405.41
2019-05-06T12:24:52.949Z,101401.30
2019-05-06T12:27:39.782Z,101401.83
2019-05-06T12:30:08.969Z,101395.63
2019-05-06T12:32:39.634Z,101386.80
2019-05-06T12:35:08.837Z,101398.22
2019-05-06T12:37:39.466Z,101396.64
2019-05-06T12:40:08.508Z,101392.06
2019-05-06T12:42:39.179Z,101392.67
2019-05-06T12:45:13.059Z,101400.51
2019-05-06T12:47:43.445Z,101392.61
2019-05-06T12:50:13.069Z,101386.58
2019-05-06T12:52:44.202Z,101390.45
2019-05-06T12:55:20.667Z,101389.84
2019-05-06T12:57:44.308Z,101385.00
2019-05-06T13:00:14.492Z,101388.64
2019-05-06T13:02:43.894Z,101381.88
2019-05-06T13:05:14.304Z,101386.55
2019-05-06T13:07:49.663Z,101384.77
2019-05-06T13:10:20.056Z,101388.39
2019-05-06T13:12:50.787Z,101382.27
2019-05-06T13:15:19.843Z,101389.11
2019-05-06T13:17:48.873Z,101386.23
2019-05-06T13:20:18.416Z,101386.11
2019-05-06T13:22:49.288Z,101383.21
2019-05-06T13:25:19.094Z,101388.02
2019-05-06T13:27:48.590Z,101390.20
2019-05-06T13:30:18.672Z,101382.47
2019-05-06T13:32:49.432Z,101378.27
2019-05-06T13:35:18.901Z,101385.74
2019-05-06T13:37:48.257Z,101381.66
2019-05-06T13:40:17.916Z,101379.69
2019-05-06T13:42:48.975Z,101374.31
2019-05-06T13:45:18.506Z,101378.72
2019-05-06T13:47:49.176Z,101372.41
2019-05-06T13:50:26.384Z,101376.14
2019-05-06T13:53:08.273Z,101365.44
2019-05-06T13:55:28.618Z,101369.33
2019-05-06T13:57:57.908Z,101373.23
2019-05-06T14:00:27.111Z,101368.16
2019-05-06T14:02:57.680Z,101364.89
2019-05-06T14:05:27.492Z,101358.89
2019-05-06T14:07:56.680Z,101356.77
2019-05-06T14:10:25.717Z,101361.38
2019-05-06T14:12:55.222Z,101354.38
2019-05-06T14:15:24.240Z,101348.80
2019-05-06T14:17:53.514Z,101348.66
2019-05-06T14:20:23.163Z,101351.15
2019-05-06T14:22:52.819Z,101352.70
2019-05-06T14:25:33.319Z,101349.05
2019-05-06T14:28:04.498Z,101350.91
2019-05-06T14:30:42.979Z,101341.71
2019-05-06T14:33:15.586Z,101344.00
2019-05-06T14:35:44.063Z,101341.22
2019-05-06T14:38:14.622Z,101343.81
2019-05-06T14:41:04.348Z,101338.84
2019-05-06T14:43:32.605Z,101332.44
2019-05-06T14:46:02.272Z,101329.76
2019-05-06T14:48:33.158Z,101322.45
2019-05-06T14:51:02.420Z,101322.02
2019-05-06T14:53:33.115Z,101322.06
2019-05-06T14:56:10.456Z,101324.92
2019-05-06T14:58:39.508Z,101319.80
2019-05-06T15:01:08.555Z,101320.48
2019-05-06T15:03:37.578Z,101323.05
2019-05-06T15:06:06.630Z,101317.39
2019-05-06T15:08:35.653Z,101319.62
2019-05-06T15:11:05.073Z,101316.23
2019-05-06T15:13:34.138Z,101318.06
2019-05-06T15:16:03.638Z,101316.39
2019-05-06T15:18:33.121Z,101314.23
2019-05-06T15:21:29.299Z,101305.05
2019-05-06T15:23:32.997Z,101305.23
2019-05-06T15:26:03.045Z,101301.45
2019-05-06T15:28:33.783Z,101306.38
2019-05-06T15:31:05.165Z,101300.78
2019-05-06T15:33:52.749Z,101298.30
2019-05-06T15:36:23.150Z,101295.95
2019-05-06T15:38:52.794Z,101289.11
2019-05-06T15:41:22.366Z,101290.87
2019-05-06T15:43:51.679Z,101292.72
2019-05-06T15:46:22.692Z,101284.59
2019-05-06T15:48:52.949Z,101287.45
2019-05-06T15:51:23.915Z,101295.40
2019-05-06T15:53:53.157Z,101291.08
2019-05-06T15:56:23.088Z,101280.58
2019-05-06T15:58:52.407Z,101287.58
2019-05-06T16:01:23.371Z,101280.84
2019-05-06T16:03:53.367Z,101281.84
2019-05-06T16:06:22.968Z,101286.25
2019-05-06T16:08:52.719Z,101274.22
2019-05-06T16:11:22.375Z,101275.41
2019-05-06T16:13:53.406Z,101275.35
2019-05-06T16:16:22.867Z,101268.86
2019-05-06T16:18:52.144Z,101270.00
2019-05-06T16:21:22.992Z,101262.05
2019-05-06T16:23:56.546Z,101265.78
2019-05-06T16:26:25.595Z,101263.63
2019-05-06T16:28:54.628Z,101264.36
2019-05-06T16:31:24.799Z,101261.83
2019-05-06T16:33:54.065Z,101259.64
2019-05-06T16:36:23.945Z,101261.06
2019-05-06T16:38:54.791Z,101261.80
2019-05-06T16:41:23.725Z,101265.41
2019-05-06T16:43:52.770Z,101266.94
2019-05-06T16:46:23.074Z,101274.42
2019-05-06T16:48:52.609Z,101274.55
2019-05-06T16:51:22.322Z,101291.45
2019-05-06T16:53:52.500Z,101298.31
2019-05-06T16:56:23.479Z,101309.75
2019-05-06T16:58:54.164Z,101319.10
2019-05-06T17:01:23.582Z,101326.66
2019-05-06T17:03:54.275Z,101335.19
2019-05-06T17:06:24.966Z,101333.81
2019-05-06T17:08:54.086Z,101332.50
2019-05-06T17:11:30.418Z,101336.70
2019-05-06T17:13:53.963Z,101342.72
2019-05-06T17:16:23.002Z,101346.76
2019-05-06T17:18:56.470Z,101333.06
2019-05-06T17:21:22.850Z,101342.66
2019-05-06T17:23:52.308Z,101336.15
2019-05-06T17:26:22.517Z,101318.81
2019-05-06T17:29:13.994Z,101351.95
2019-05-06T17:31:47.326Z,101343.77
2019-05-06T17:34:18.047Z,101349.73
2019-05-06T17:36:47.680Z,101344.09
2019-05-06T17:39:16.739Z,101340.59
2019-05-06T17:41:49.126Z,101345.97
2019-05-06T17:44:17.784Z,101344.96
2019-05-06T17:46:54.591Z,101343.11
2019-05-06T17:49:34.275Z,101346.54
2019-05-06T17:52:17.164Z,101344.64
2019-05-06T17:54:46.614Z,101351.33
2019-05-06T17:57:15.923Z,101348.77
2019-05-06T17:59:45.373Z,101351.67
2019-05-06T18:02:19.269Z,101354.39
2019-05-06T18:04:48.542Z,101355.09
2019-05-06T18:07:18.310Z,101356.08
2019-05-06T18:09:47.365Z,101313.73
2019-05-06T18:12:17.221Z,101358.05
2019-05-06T18:14:46.843Z,101360.89
2019-05-06T18:17:16.158Z,101328.92
2019-05-06T18:19:45.266Z,101356.10
2019-05-06T18:22:14.336Z,101356.10
2019-05-06T18:24:43.361Z,101360.78
2019-05-06T18:27:13.228Z,101360.78
2019-05-06T18:29:42.571Z,101367.32
2019-05-06T18:32:12.689Z,101353.62
2019-05-06T18:34:42.156Z,101357.33
2019-05-06T18:37:12.704Z,101359.24
2019-05-06T18:39:42.594Z,101362.47
2019-05-06T18:42:19.109Z,101357.56
2019-05-06T18:44:42.859Z,101359.08
2019-05-06T18:47:12.339Z,101369.18
2019-05-06T18:49:42.663Z,101365.95
2019-05-06T18:52:13.166Z,101356.78
2019-05-06T18:54:43.195Z,101356.78
2019-05-06T18:57:13.071Z,101347.95
2019-05-06T18:59:42.655Z,101357.92
2019-05-06T19:02:13.226Z,101356.80
2019-05-06T19:04:44.179Z,101347.62
2019-05-06T19:07:17.031Z,101347.62
2019-05-06T19:09:49.049Z,101352.45
2019-05-06T19:12:30.140Z,101351.78
2019-05-06T19:14:49.592Z,101359.01
2019-05-06T19:17:18.745Z,101359.94
2019-05-06T19:19:47.838Z,101359.58
2019-05-06T19:22:17.033Z,101355.72
2019-05-06T19:24:46.312Z,101360.05
2019-05-06T19:27:15.445Z,101358.87
2019-05-06T19:29:44.767Z,101360.43
2019-05-06T19:32:13.848Z,101358.95
2019-05-06T19:34:43.173Z,101359.30
2019-05-06T19:37:12.201Z,101359.43
2019-05-06T19:39:43.087Z,101355.99
2019-05-06T19:42:12.887Z,101358.55
2019-05-06T19:44:43.115Z,101364.77
2019-05-06T19:47:13.323Z,101357.92
2019-05-06T19:49:42.537Z,101363.56
2019-05-06T19:52:11.602Z,101355.20
2019-05-06T19:54:42.457Z,101358.08
2019-05-06T19:57:12.453Z,101358.03
2019-05-06T19:59:42.540Z,101350.72
2019-05-06T20:02:12.925Z,101360.37
2019-05-06T20:04:44.589Z,101354.04
2019-05-06T20:07:27.961Z,101354.04
2019-05-06T20:10:12.344Z,101358.36
2019-05-06T20:12:58.464Z,101357.91
2019-05-06T20:15:34.559Z,101346.34
2019-05-06T20:18:05.217Z,101355.27
2019-05-06T20:20:35.306Z,101352.98
2019-05-06T20:23:05.148Z,101349.53
2019-05-06T20:25:36.918Z,101355.36
2019-05-06T20:28:05.594Z,101359.00
2019-05-06T20:30:34.737Z,101359.00
2019-05-06T20:33:03.830Z,101354.48
2019-05-06T20:35:33.583Z,101354.53
2019-05-06T20:38:02.919Z,101354.67
2019-05-06T20:40:33.037Z,101353.04
2019-05-06T20:43:14.173Z,101349.86
2019-05-06T20:45:35.471Z,101344.84
2019-05-06T20:48:04.419Z,101344.84
2019-05-06T20:50:33.447Z,101345.52
2019-05-06T20:53:02.495Z,101339.38
2019-05-06T20:55:35.218Z,101339.38
2019-05-06T20:58:02.881Z,101338.80
2019-05-06T21:00:33.493Z,101347.34
2019-05-06T21:03:02.917Z,101345.80
2019-05-06T21:05:32.404Z,101350.03
2019-05-06T21:08:02.335Z,101350.03
2019-05-06T21:10:32.922Z,101347.97
2019-05-06T21:13:02.468Z,101352.95
2019-05-06T21:15:32.620Z,101352.95
2019-05-06T21:18:04.243Z,101351.32
2019-05-06T21:20:33.302Z,101353.67
2019-05-06T21:23:02.530Z,101346.23
2019-05-06T21:25:32.275Z,101347.86
2019-05-06T21:28:02.898Z,101344.45
2019-05-06T21:30:32.547Z,101340.70
2019-05-06T21:33:01.664Z,101343.22
2019-05-06T21:35:32.967Z,101341.77
2019-05-06T21:38:02.530Z,101345.30
2019-05-06T21:40:32.434Z,101343.62
2019-05-06T21:43:02.223Z,101342.03
2019-05-06T21:45:33.170Z,101341.77
2019-05-06T21:48:02.990Z,101340.05
2019-05-06T21:50:33.043Z,101342.73
2019-05-06T21:53:03.133Z,101335.58
2019-05-06T21:55:32.450Z,101335.13
2019-05-06T21:58:02.349Z,101333.41
2019-05-06T22:00:33.606Z,101340.02
2019-05-06T22:03:02.802Z,101329.74
2019-05-06T22:05:32.113Z,101336.84
2019-05-06T22:08:01.891Z,101332.59
2019-05-06T22:10:32.475Z,101334.56
2019-05-06T22:13:01.870Z,101324.86
2019-05-06T22:15:32.441Z,101324.30
2019-05-06T22:18:02.579Z,101325.85
2019-05-06T22:20:33.618Z,101328.36
2019-05-06T22:23:02.678Z,101324.17
2019-05-06T22:25:32.659Z,101330.44
2019-05-06T22:28:02.458Z,101322.84
2019-05-06T22:30:32.900Z,101323.20
2019-05-06T22:33:03.655Z,101326.23
2019-05-06T22:35:32.959Z,101322.11
2019-05-06T22:38:02.862Z,101324.73
2019-05-06T22:40:32.846Z,101326.17
2019-05-06T22:43:03.212Z,101322.02
2019-05-06T22:45:33.064Z,101326.77
2019-05-06T22:48:04.477Z,101323.95
2019-05-06T22:50:33.062Z,101321.53
2019-05-06T22:53:02.356Z,101321.69
2019-05-06T22:55:32.963Z,101323.89
2019-05-06T22:58:02.581Z,101318.84
2019-05-06T23:00:33.475Z,101319.75
2019-05-06T23:03:06.840Z,101317.67
2019-05-06T23:05:35.898Z,101317.78
2019-05-06T23:08:04.998Z,101314.94
2019-05-06T23:10:34.072Z,101317.48
2019-05-06T23:13:03.184Z,101313.73
2019-05-06T23:15:34.137Z,101311.55
2019-05-06T23:18:02.951Z,101315.05
2019-05-06T23:20:32.165Z,101310.25
2019-05-06T23:23:02.443Z,101311.23
2019-05-06T23:25:32.690Z,101313.41
2019-05-06T23:28:02.784Z,101311.77
2019-05-06T23:30:33.453Z,101313.94
2019-05-06T23:33:02.890Z,101316.16
2019-05-06T23:35:31.950Z,101315.67
2019-05-06T23:38:37.204Z,101316.16
2019-05-06T23:41:42.394Z,101318.61
2019-05-06T23:44:47.530Z,101314.77
2019-05-06T23:47:53.272Z,101315.13
2019-05-06T23:50:58.927Z,101317.20
2019-05-06T23:54:04.103Z,101312.22
2019-05-06T23:56:43.741Z,101310.46
2019-05-06T23:59:16.160Z,101306.16
